YEO weather

RNAS Yeovilton
Yeovil, England, United Kingdom

Public forecast

Using degrees Celsius for public forecast. Weather courtesy of forecast.io.

Current aviation weather report (METAR) for RNAS Yeovilton

Retrieved 2019/10/17 14:20 UTC (0 seconds ago):

EGDY 171420Z 20018KT 9999 FEW025CB SCT030 15/10 Q1002 NOSIG RMK BLU BLU

Aviation forecast (TAF) for RNAS Yeovilton

Forecast is more than 12 hours old.

Retrieved 2019/05/01 18:06 UTC (6 months ago):

TAF TAF EGDY 010100Z 3018/0103 CNL